Oneida, New York
Current Conditions -  °F | °C
As of 12:53 PM on Friday 31 Oct 2014 (Local Time) from KRME Reporting Station
Clear Clear  
Wind Chill: 42°   Ceiling: Unl
Heat Index: 47°   Visibility: 10mi
Dew Point: 34°   Wind: 10mph
Humidity: 61%   Direction: 140°SE
Pressure: 30"   Gusts: NA
Location:  43.1°N, 75.65°W
Report Text: KRME 311653Z 14009KT 10SM CLR 08/01 A3000 RMK AO2 SLP161 T00830011
Loading
Personal Weather Stations






























Interactive Weather Map
Tropical Storm Tracking
New forecast layout! Learn more

10-Day Weather Forecast

Advertisements
Track Severe Weather on mobile